sensor_id;sensor_type;location;lat;lon;timestamp;P1;durP1;ratioP1;P2;durP2;ratioP2
359;SDS011;168;48.872;9.226;2024-01-16T00:02:08;5.70;;;4.90;;
359;SDS011;168;48.872;9.226;2024-01-16T00:04:36;4.27;;;3.87;;
359;SDS011;168;48.872;9.226;2024-01-16T00:07:03;4.77;;;4.17;;
359;SDS011;168;48.872;9.226;2024-01-16T00:09:32;10.17;;;4.60;;
359;SDS011;168;48.872;9.226;2024-01-16T00:12:00;11.27;;;4.80;;
359;SDS011;168;48.872;9.226;2024-01-16T00:14:28;7.47;;;4.40;;
359;SDS011;168;48.872;9.226;2024-01-16T00:16:55;9.90;;;5.60;;
359;SDS011;168;48.872;9.226;2024-01-16T00:19:24;6.93;;;4.30;;
359;SDS011;168;48.872;9.226;2024-01-16T00:21:51;6.50;;;4.43;;
359;SDS011;168;48.872;9.226;2024-01-16T00:24:19;6.97;;;4.07;;
359;SDS011;168;48.872;9.226;2024-01-16T00:26:46;8.03;;;4.57;;
359;SDS011;168;48.872;9.226;2024-01-16T00:29:15;6.77;;;4.43;;
359;SDS011;168;48.872;9.226;2024-01-16T00:31:42;4.77;;;4.00;;
359;SDS011;168;48.872;9.226;2024-01-16T00:34:09;5.80;;;3.87;;
359;SDS011;168;48.872;9.226;2024-01-16T00:36:38;6.30;;;4.83;;
359;SDS011;168;48.872;9.226;2024-01-16T00:39:05;5.60;;;4.63;;
359;SDS011;168;48.872;9.226;2024-01-16T00:41:33;6.13;;;4.47;;
359;SDS011;168;48.872;9.226;2024-01-16T00:44:01;10.93;;;4.77;;
359;SDS011;168;48.872;9.226;2024-01-16T00:46:28;7.07;;;4.73;;
359;SDS011;168;48.872;9.226;2024-01-16T00:48:56;8.87;;;4.10;;
359;SDS011;168;48.872;9.226;2024-01-16T00:51:23;4.87;;;3.97;;
359;SDS011;168;48.872;9.226;2024-01-16T00:53:52;5.47;;;4.77;;
359;SDS011;168;48.872;9.226;2024-01-16T00:56:19;7.67;;;4.67;;
359;SDS011;168;48.872;9.226;2024-01-16T00:58:47;6.13;;;4.60;;
359;SDS011;168;48.872;9.226;2024-01-16T01:01:14;7.50;;;5.20;;
359;SDS011;168;48.872;9.226;2024-01-16T01:03:41;5.40;;;4.57;;
359;SDS011;168;48.872;9.226;2024-01-16T01:06:09;9.87;;;5.87;;
359;SDS011;168;48.872;9.226;2024-01-16T01:08:36;6.30;;;5.40;;
359;SDS011;168;48.872;9.226;2024-01-16T01:11:05;7.87;;;5.23;;
359;SDS011;168;48.872;9.226;2024-01-16T01:13:32;5.83;;;5.03;;
359;SDS011;168;48.872;9.226;2024-01-16T01:16:00;6.87;;;4.60;;
359;SDS011;168;48.872;9.226;2024-01-16T01:18:27;7.83;;;4.97;;
359;SDS011;168;48.872;9.226;2024-01-16T01:20:54;7.07;;;5.27;;
359;SDS011;168;48.872;9.226;2024-01-16T01:23:22;6.10;;;5.33;;
359;SDS011;168;48.872;9.226;2024-01-16T01:25:49;6.47;;;5.17;;
359;SDS011;168;48.872;9.226;2024-01-16T01:28:18;6.67;;;5.60;;
359;SDS011;168;48.872;9.226;2024-01-16T01:30:46;5.77;;;5.13;;
359;SDS011;168;48.872;9.226;2024-01-16T01:33:13;5.70;;;4.73;;
359;SDS011;168;48.872;9.226;2024-01-16T01:35:41;8.70;;;6.10;;
359;SDS011;168;48.872;9.226;2024-01-16T01:38:08;6.87;;;5.07;;
359;SDS011;168;48.872;9.226;2024-01-16T01:40:35;6.43;;;4.93;;
359;SDS011;168;48.872;9.226;2024-01-16T01:43:16;7.33;;;4.80;;
359;SDS011;168;48.872;9.226;2024-01-16T01:45:47;9.13;;;4.60;;
359;SDS011;168;48.872;9.226;2024-01-16T01:48:26;7.63;;;5.67;;
359;SDS011;168;48.872;9.226;2024-01-16T01:50:53;7.93;;;5.20;;
359;SDS011;168;48.872;9.226;2024-01-16T01:53:21;5.93;;;5.03;;
359;SDS011;168;48.872;9.226;2024-01-16T01:55:49;7.87;;;5.20;;
359;SDS011;168;48.872;9.226;2024-01-16T01:58:16;6.60;;;5.63;;
359;SDS011;168;48.872;9.226;2024-01-16T02:00:44;8.33;;;6.33;;
359;SDS011;168;48.872;9.226;2024-01-16T02:03:13;7.77;;;5.10;;
359;SDS011;168;48.872;9.226;2024-01-16T02:05:40;7.17;;;5.40;;
359;SDS011;168;48.872;9.226;2024-01-16T02:08:08;7.27;;;6.23;;
359;SDS011;168;48.872;9.226;2024-01-16T02:10:36;7.47;;;5.27;;
359;SDS011;168;48.872;9.226;2024-01-16T02:13:05;8.77;;;6.13;;
359;SDS011;168;48.872;9.226;2024-01-16T02:15:32;6.80;;;5.27;;
359;SDS011;168;48.872;9.226;2024-01-16T02:17:59;7.90;;;5.67;;
359;SDS011;168;48.872;9.226;2024-01-16T02:20:28;9.47;;;5.70;;
359;SDS011;168;48.872;9.226;2024-01-16T02:22:56;6.40;;;5.10;;
359;SDS011;168;48.872;9.226;2024-01-16T02:25:28;7.97;;;5.50;;
359;SDS011;168;48.872;9.226;2024-01-16T02:27:56;8.03;;;5.17;;
359;SDS011;168;48.872;9.226;2024-01-16T02:30:23;6.50;;;4.70;;
359;SDS011;168;48.872;9.226;2024-01-16T02:32:50;6.80;;;5.40;;
359;SDS011;168;48.872;9.226;2024-01-16T02:35:18;7.23;;;5.23;;
359;SDS011;168;48.872;9.226;2024-01-16T02:37:45;9.40;;;5.33;;
359;SDS011;168;48.872;9.226;2024-01-16T02:40:13;7.23;;;5.43;;
359;SDS011;168;48.872;9.226;2024-01-16T02:42:42;6.83;;;6.00;;
359;SDS011;168;48.872;9.226;2024-01-16T02:45:09;7.23;;;5.50;;
359;SDS011;168;48.872;9.226;2024-01-16T02:47:37;5.93;;;4.80;;
359;SDS011;168;48.872;9.226;2024-01-16T02:50:05;5.60;;;5.00;;
359;SDS011;168;48.872;9.226;2024-01-16T02:52:35;6.97;;;5.90;;
359;SDS011;168;48.872;9.226;2024-01-16T02:55:02;6.60;;;5.60;;
359;SDS011;168;48.872;9.226;2024-01-16T02:57:30;7.63;;;5.60;;
359;SDS011;168;48.872;9.226;2024-01-16T02:59:59;7.17;;;5.67;;
359;SDS011;168;48.872;9.226;2024-01-16T03:02:27;7.40;;;5.10;;
359;SDS011;168;48.872;9.226;2024-01-16T03:04:55;7.30;;;5.57;;
359;SDS011;168;48.872;9.226;2024-01-16T03:07:22;10.37;;;6.83;;
359;SDS011;168;48.872;9.226;2024-01-16T03:09:50;8.40;;;5.83;;
359;SDS011;168;48.872;9.226;2024-01-16T03:12:17;7.40;;;5.70;;
359;SDS011;168;48.872;9.226;2024-01-16T03:14:45;9.03;;;5.83;;
359;SDS011;168;48.872;9.226;2024-01-16T03:17:14;6.67;;;5.20;;
359;SDS011;168;48.872;9.226;2024-01-16T03:19:41;7.77;;;5.60;;
359;SDS011;168;48.872;9.226;2024-01-16T03:22:09;6.00;;;5.40;;
359;SDS011;168;48.872;9.226;2024-01-16T03:24:37;7.20;;;6.37;;
359;SDS011;168;48.872;9.226;2024-01-16T03:27:04;8.33;;;5.60;;
359;SDS011;168;48.872;9.226;2024-01-16T03:29:31;7.90;;;5.30;;
359;SDS011;168;48.872;9.226;2024-01-16T03:31:59;5.53;;;4.97;;
359;SDS011;168;48.872;9.226;2024-01-16T03:34:30;10.97;;;6.57;;
359;SDS011;168;48.872;9.226;2024-01-16T03:36:57;8.23;;;5.40;;
359;SDS011;168;48.872;9.226;2024-01-16T03:39:25;7.20;;;5.50;;
359;SDS011;168;48.872;9.226;2024-01-16T03:41:52;8.70;;;5.50;;
359;SDS011;168;48.872;9.226;2024-01-16T03:44:19;8.10;;;6.60;;
359;SDS011;168;48.872;9.226;2024-01-16T03:46:47;7.57;;;5.50;;
359;SDS011;168;48.872;9.226;2024-01-16T03:49:14;7.60;;;5.73;;
359;SDS011;168;48.872;9.226;2024-01-16T03:51:43;9.03;;;5.33;;
359;SDS011;168;48.872;9.226;2024-01-16T03:54:11;8.70;;;5.40;;
359;SDS011;168;48.872;9.226;2024-01-16T03:56:39;7.13;;;5.77;;
359;SDS011;168;48.872;9.226;2024-01-16T03:59:07;10.20;;;6.40;;
359;SDS011;168;48.872;9.226;2024-01-16T04:01:34;8.47;;;6.00;;
359;SDS011;168;48.872;9.226;2024-01-16T04:04:02;8.83;;;6.20;;
359;SDS011;168;48.872;9.226;2024-01-16T04:06:31;7.57;;;5.47;;
359;SDS011;168;48.872;9.226;2024-01-16T04:09:00;6.67;;;5.20;;
359;SDS011;168;48.872;9.226;2024-01-16T04:11:28;7.60;;;5.27;;
359;SDS011;168;48.872;9.226;2024-01-16T04:13:55;10.87;;;6.13;;
359;SDS011;168;48.872;9.226;2024-01-16T04:16:23;6.90;;;5.33;;
359;SDS011;168;48.872;9.226;2024-01-16T04:18:50;9.63;;;6.00;;
359;SDS011;168;48.872;9.226;2024-01-16T04:21:18;8.20;;;5.50;;
359;SDS011;168;48.872;9.226;2024-01-16T04:23:45;8.90;;;6.00;;
359;SDS011;168;48.872;9.226;2024-01-16T04:26:14;10.80;;;5.70;;
359;SDS011;168;48.872;9.226;2024-01-16T04:28:41;7.47;;;6.40;;
359;SDS011;168;48.872;9.226;2024-01-16T04:31:09;7.30;;;5.40;;
359;SDS011;168;48.872;9.226;2024-01-16T04:33:37;8.67;;;5.60;;
359;SDS011;168;48.872;9.226;2024-01-16T04:36:05;11.80;;;5.23;;
359;SDS011;168;48.872;9.226;2024-01-16T04:38:33;7.93;;;5.60;;
359;SDS011;168;48.872;9.226;2024-01-16T04:41:01;8.67;;;5.57;;
359;SDS011;168;48.872;9.226;2024-01-16T04:43:30;7.10;;;5.60;;
359;SDS011;168;48.872;9.226;2024-01-16T04:46:00;7.40;;;5.67;;
359;SDS011;168;48.872;9.226;2024-01-16T04:48:28;9.40;;;5.80;;
359;SDS011;168;48.872;9.226;2024-01-16T04:50:55;7.60;;;5.40;;
359;SDS011;168;48.872;9.226;2024-01-16T04:53:23;7.87;;;5.40;;
359;SDS011;168;48.872;9.226;2024-01-16T04:55:50;7.60;;;5.07;;
359;SDS011;168;48.872;9.226;2024-01-16T04:58:18;10.03;;;5.60;;
359;SDS011;168;48.872;9.226;2024-01-16T05:00:46;8.00;;;5.87;;
359;SDS011;168;48.872;9.226;2024-01-16T05:03:14;6.30;;;4.63;;
359;SDS011;168;48.872;9.226;2024-01-16T05:05:41;12.43;;;7.50;;
359;SDS011;168;48.872;9.226;2024-01-16T05:08:09;8.53;;;5.70;;
359;SDS011;168;48.872;9.226;2024-01-16T05:10:36;8.03;;;5.40;;
359;SDS011;168;48.872;9.226;2024-01-16T05:13:03;9.77;;;5.63;;
359;SDS011;168;48.872;9.226;2024-01-16T05:15:31;7.30;;;5.00;;
359;SDS011;168;48.872;9.226;2024-01-16T05:17:59;8.80;;;5.40;;
359;SDS011;168;48.872;9.226;2024-01-16T05:20:27;7.90;;;5.30;;
359;SDS011;168;48.872;9.226;2024-01-16T05:22:54;8.90;;;5.63;;
359;SDS011;168;48.872;9.226;2024-01-16T05:25:22;8.90;;;6.10;;
359;SDS011;168;48.872;9.226;2024-01-16T05:27:50;9.10;;;6.07;;
359;SDS011;168;48.872;9.226;2024-01-16T05:30:17;8.73;;;6.27;;
359;SDS011;168;48.872;9.226;2024-01-16T05:32:45;8.30;;;6.20;;
359;SDS011;168;48.872;9.226;2024-01-16T05:35:14;8.80;;;6.33;;
359;SDS011;168;48.872;9.226;2024-01-16T05:37:41;10.60;;;5.70;;
359;SDS011;168;48.872;9.226;2024-01-16T05:40:09;8.83;;;5.87;;
359;SDS011;168;48.872;9.226;2024-01-16T05:42:37;7.30;;;5.60;;
359;SDS011;168;48.872;9.226;2024-01-16T05:45:05;7.73;;;5.57;;
359;SDS011;168;48.872;9.226;2024-01-16T05:47:33;11.67;;;5.80;;
359;SDS011;168;48.872;9.226;2024-01-16T05:50:00;7.20;;;5.60;;
359;SDS011;168;48.872;9.226;2024-01-16T05:52:29;6.27;;;5.37;;
359;SDS011;168;48.872;9.226;2024-01-16T05:54:56;7.80;;;5.57;;
359;SDS011;168;48.872;9.226;2024-01-16T05:57:25;8.83;;;5.40;;
359;SDS011;168;48.872;9.226;2024-01-16T05:59:52;6.80;;;5.03;;
359;SDS011;168;48.872;9.226;2024-01-16T06:02:20;8.23;;;5.53;;
359;SDS011;168;48.872;9.226;2024-01-16T06:04:47;10.40;;;6.57;;
359;SDS011;168;48.872;9.226;2024-01-16T06:07:14;8.57;;;5.70;;
359;SDS011;168;48.872;9.226;2024-01-16T06:09:43;6.30;;;5.27;;
359;SDS011;168;48.872;9.226;2024-01-16T06:12:10;8.33;;;5.73;;
359;SDS011;168;48.872;9.226;2024-01-16T06:14:38;8.50;;;5.97;;
359;SDS011;168;48.872;9.226;2024-01-16T06:17:05;8.03;;;5.90;;
359;SDS011;168;48.872;9.226;2024-01-16T06:19:33;7.93;;;5.80;;
359;SDS011;168;48.872;9.226;2024-01-16T06:22:00;7.43;;;5.30;;
359;SDS011;168;48.872;9.226;2024-01-16T06:24:28;8.07;;;5.60;;
359;SDS011;168;48.872;9.226;2024-01-16T06:27:04;11.87;;;7.63;;
359;SDS011;168;48.872;9.226;2024-01-16T06:29:32;10.33;;;6.83;;
359;SDS011;168;48.872;9.226;2024-01-16T06:32:00;9.70;;;6.97;;
359;SDS011;168;48.872;9.226;2024-01-16T06:34:27;9.47;;;5.90;;
359;SDS011;168;48.872;9.226;2024-01-16T06:36:55;10.40;;;6.40;;
359;SDS011;168;48.872;9.226;2024-01-16T06:39:22;9.27;;;5.90;;
359;SDS011;168;48.872;9.226;2024-01-16T06:41:50;8.20;;;5.27;;
359;SDS011;168;48.872;9.226;2024-01-16T06:44:19;8.33;;;6.10;;
359;SDS011;168;48.872;9.226;2024-01-16T06:46:46;7.93;;;5.80;;
359;SDS011;168;48.872;9.226;2024-01-16T06:49:14;8.60;;;6.10;;
359;SDS011;168;48.872;9.226;2024-01-16T06:51:41;9.07;;;6.10;;
359;SDS011;168;48.872;9.226;2024-01-16T06:54:08;9.27;;;4.97;;
359;SDS011;168;48.872;9.226;2024-01-16T06:56:36;7.70;;;5.47;;
359;SDS011;168;48.872;9.226;2024-01-16T06:59:03;5.30;;;4.60;;
359;SDS011;168;48.872;9.226;2024-01-16T07:01:32;6.27;;;4.77;;
359;SDS011;168;48.872;9.226;2024-01-16T07:03:59;6.93;;;4.70;;
359;SDS011;168;48.872;9.226;2024-01-16T07:06:27;9.27;;;5.20;;
359;SDS011;168;48.872;9.226;2024-01-16T07:08:54;8.40;;;5.20;;
359;SDS011;168;48.872;9.226;2024-01-16T07:11:21;7.13;;;4.97;;
359;SDS011;168;48.872;9.226;2024-01-16T07:13:49;6.27;;;4.80;;
359;SDS011;168;48.872;9.226;2024-01-16T07:16:16;7.10;;;4.63;;
359;SDS011;168;48.872;9.226;2024-01-16T07:18:45;7.70;;;5.30;;
359;SDS011;168;48.872;9.226;2024-01-16T07:21:18;6.77;;;4.77;;
359;SDS011;168;48.872;9.226;2024-01-16T07:23:46;11.50;;;4.97;;
359;SDS011;168;48.872;9.226;2024-01-16T07:26:14;8.27;;;4.30;;
359;SDS011;168;48.872;9.226;2024-01-16T07:28:42;8.13;;;4.50;;
359;SDS011;168;48.872;9.226;2024-01-16T07:31:09;6.83;;;4.50;;
359;SDS011;168;48.872;9.226;2024-01-16T07:33:37;6.10;;;3.93;;
359;SDS011;168;48.872;9.226;2024-01-16T07:36:07;4.73;;;4.00;;
359;SDS011;168;48.872;9.226;2024-01-16T07:38:35;6.80;;;4.40;;
359;SDS011;168;48.872;9.226;2024-01-16T07:41:03;7.40;;;4.57;;
359;SDS011;168;48.872;9.226;2024-01-16T07:43:30;5.37;;;3.93;;
359;SDS011;168;48.872;9.226;2024-01-16T07:45:58;5.97;;;4.00;;
359;SDS011;168;48.872;9.226;2024-01-16T07:48:25;6.63;;;4.00;;
359;SDS011;168;48.872;9.226;2024-01-16T07:50:53;9.10;;;4.03;;
359;SDS011;168;48.872;9.226;2024-01-16T07:53:22;5.07;;;4.10;;
359;SDS011;168;48.872;9.226;2024-01-16T07:55:53;4.33;;;3.90;;
359;SDS011;168;48.872;9.226;2024-01-16T07:58:21;5.40;;;3.97;;
359;SDS011;168;48.872;9.226;2024-01-16T08:00:48;5.40;;;4.10;;
359;SDS011;168;48.872;9.226;2024-01-16T08:03:15;5.63;;;3.87;;
359;SDS011;168;48.872;9.226;2024-01-16T08:05:43;9.13;;;4.33;;
359;SDS011;168;48.872;9.226;2024-01-16T08:08:10;6.47;;;4.10;;
359;SDS011;168;48.872;9.226;2024-01-16T08:10:39;6.60;;;4.07;;
359;SDS011;168;48.872;9.226;2024-01-16T08:13:08;6.50;;;3.90;;
359;SDS011;168;48.872;9.226;2024-01-16T08:15:35;6.37;;;4.33;;
359;SDS011;168;48.872;9.226;2024-01-16T08:18:05;6.57;;;4.07;;
359;SDS011;168;48.872;9.226;2024-01-16T08:20:43;5.97;;;4.13;;
359;SDS011;168;48.872;9.226;2024-01-16T08:23:10;7.60;;;4.27;;
359;SDS011;168;48.872;9.226;2024-01-16T08:25:37;6.03;;;4.13;;
359;SDS011;168;48.872;9.226;2024-01-16T08:28:06;7.53;;;4.40;;
359;SDS011;168;48.872;9.226;2024-01-16T08:30:34;8.20;;;4.57;;
359;SDS011;168;48.872;9.226;2024-01-16T08:33:02;8.23;;;4.40;;
359;SDS011;168;48.872;9.226;2024-01-16T08:35:30;7.80;;;4.50;;
359;SDS011;168;48.872;9.226;2024-01-16T08:37:57;5.17;;;3.93;;
359;SDS011;168;48.872;9.226;2024-01-16T08:40:24;6.27;;;4.50;;
359;SDS011;168;48.872;9.226;2024-01-16T08:42:53;5.30;;;4.10;;
359;SDS011;168;48.872;9.226;2024-01-16T08:45:21;6.07;;;4.00;;
359;SDS011;168;48.872;9.226;2024-01-16T08:47:49;7.20;;;5.60;;
359;SDS011;168;48.872;9.226;2024-01-16T08:50:16;5.60;;;4.40;;
359;SDS011;168;48.872;9.226;2024-01-16T08:52:44;4.40;;;3.43;;
359;SDS011;168;48.872;9.226;2024-01-16T08:55:11;6.90;;;4.30;;
359;SDS011;168;48.872;9.226;2024-01-16T08:57:38;6.43;;;3.07;;
359;SDS011;168;48.872;9.226;2024-01-16T09:00:08;5.70;;;4.23;;
359;SDS011;168;48.872;9.226;2024-01-16T09:02:35;4.53;;;3.87;;
359;SDS011;168;48.872;9.226;2024-01-16T09:05:03;5.80;;;3.70;;
359;SDS011;168;48.872;9.226;2024-01-16T09:07:31;7.90;;;4.77;;
359;SDS011;168;48.872;9.226;2024-01-16T09:09:59;5.70;;;3.90;;
359;SDS011;168;48.872;9.226;2024-01-16T09:12:26;7.03;;;4.40;;
359;SDS011;168;48.872;9.226;2024-01-16T09:14:53;8.57;;;3.77;;
359;SDS011;168;48.872;9.226;2024-01-16T09:17:22;6.37;;;4.20;;
359;SDS011;168;48.872;9.226;2024-01-16T09:19:51;8.90;;;4.63;;
359;SDS011;168;48.872;9.226;2024-01-16T09:22:18;6.73;;;4.93;;
359;SDS011;168;48.872;9.226;2024-01-16T09:24:45;8.37;;;4.63;;
359;SDS011;168;48.872;9.226;2024-01-16T09:27:13;7.20;;;4.03;;
359;SDS011;168;48.872;9.226;2024-01-16T09:29:42;5.40;;;3.93;;
359;SDS011;168;48.872;9.226;2024-01-16T09:32:09;5.80;;;4.27;;
359;SDS011;168;48.872;9.226;2024-01-16T09:34:38;5.60;;;4.40;;
359;SDS011;168;48.872;9.226;2024-01-16T09:37:06;5.63;;;4.13;;
359;SDS011;168;48.872;9.226;2024-01-16T09:39:33;5.73;;;4.13;;
359;SDS011;168;48.872;9.226;2024-01-16T09:42:03;6.40;;;4.07;;
359;SDS011;168;48.872;9.226;2024-01-16T09:44:31;8.23;;;4.20;;
359;SDS011;168;48.872;9.226;2024-01-16T09:46:59;5.93;;;4.10;;
359;SDS011;168;48.872;9.226;2024-01-16T09:49:30;4.93;;;3.90;;
359;SDS011;168;48.872;9.226;2024-01-16T09:51:58;5.90;;;4.30;;
359;SDS011;168;48.872;9.226;2024-01-16T09:54:27;5.73;;;3.93;;
359;SDS011;168;48.872;9.226;2024-01-16T09:56:55;5.67;;;3.77;;
359;SDS011;168;48.872;9.226;2024-01-16T09:59:24;4.50;;;3.50;;
359;SDS011;168;48.872;9.226;2024-01-16T10:01:54;8.00;;;4.20;;
359;SDS011;168;48.872;9.226;2024-01-16T10:04:23;7.37;;;4.67;;
359;SDS011;168;48.872;9.226;2024-01-16T10:06:53;6.80;;;4.20;;
359;SDS011;168;48.872;9.226;2024-01-16T10:09:24;6.00;;;4.10;;
359;SDS011;168;48.872;9.226;2024-01-16T10:11:52;7.97;;;4.43;;
359;SDS011;168;48.872;9.226;2024-01-16T10:14:20;8.53;;;4.13;;
359;SDS011;168;48.872;9.226;2024-01-16T10:16:55;6.50;;;4.13;;
359;SDS011;168;48.872;9.226;2024-01-16T10:19:23;5.73;;;4.20;;
359;SDS011;168;48.872;9.226;2024-01-16T10:21:51;6.97;;;4.13;;
359;SDS011;168;48.872;9.226;2024-01-16T10:24:18;5.93;;;4.30;;
359;SDS011;168;48.872;9.226;2024-01-16T10:26:49;6.67;;;4.50;;
359;SDS011;168;48.872;9.226;2024-01-16T10:29:25;8.30;;;5.13;;
359;SDS011;168;48.872;9.226;2024-01-16T10:31:53;7.93;;;4.30;;
359;SDS011;168;48.872;9.226;2024-01-16T10:34:20;7.83;;;4.60;;
359;SDS011;168;48.872;9.226;2024-01-16T10:36:49;7.73;;;4.20;;
359;SDS011;168;48.872;9.226;2024-01-16T10:39:17;6.07;;;4.97;;
359;SDS011;168;48.872;9.226;2024-01-16T10:41:54;8.03;;;4.70;;
359;SDS011;168;48.872;9.226;2024-01-16T10:44:23;7.30;;;4.70;;
359;SDS011;168;48.872;9.226;2024-01-16T10:46:50;6.00;;;4.80;;
359;SDS011;168;48.872;9.226;2024-01-16T10:49:17;8.33;;;5.03;;
359;SDS011;168;48.872;9.226;2024-01-16T10:51:46;8.43;;;5.20;;
359;SDS011;168;48.872;9.226;2024-01-16T10:54:15;8.03;;;4.40;;
359;SDS011;168;48.872;9.226;2024-01-16T10:56:44;7.27;;;5.13;;
359;SDS011;168;48.872;9.226;2024-01-16T10:59:18;6.20;;;4.43;;
359;SDS011;168;48.872;9.226;2024-01-16T11:01:50;6.60;;;5.07;;
359;SDS011;168;48.872;9.226;2024-01-16T11:04:20;11.10;;;6.70;;
359;SDS011;168;48.872;9.226;2024-01-16T11:06:50;7.60;;;5.73;;
359;SDS011;168;48.872;9.226;2024-01-16T11:09:18;5.53;;;4.67;;
359;SDS011;168;48.872;9.226;2024-01-16T11:11:47;8.00;;;5.70;;
359;SDS011;168;48.872;9.226;2024-01-16T11:14:21;7.40;;;4.67;;
359;SDS011;168;48.872;9.226;2024-01-16T11:16:51;9.10;;;4.70;;
359;SDS011;168;48.872;9.226;2024-01-16T11:19:22;8.87;;;5.03;;
359;SDS011;168;48.872;9.226;2024-01-16T11:21:50;8.10;;;5.27;;
359;SDS011;168;48.872;9.226;2024-01-16T11:24:18;7.00;;;5.17;;
359;SDS011;168;48.872;9.226;2024-01-16T11:26:46;7.43;;;5.13;;
359;SDS011;168;48.872;9.226;2024-01-16T11:32:03;9.20;;;5.80;;
359;SDS011;168;48.872;9.226;2024-01-16T11:37:27;7.73;;;5.07;;
359;SDS011;168;48.872;9.226;2024-01-16T11:42:48;11.50;;;6.13;;
359;SDS011;168;48.872;9.226;2024-01-16T11:48:27;10.53;;;4.63;;
359;SDS011;168;48.872;9.226;2024-01-16T11:50:54;8.03;;;4.80;;
359;SDS011;168;48.872;9.226;2024-01-16T11:53:31;8.53;;;4.10;;
359;SDS011;168;48.872;9.226;2024-01-16T11:56:06;5.67;;;4.47;;
359;SDS011;168;48.872;9.226;2024-01-16T11:59:11;5.40;;;4.07;;
359;SDS011;168;48.872;9.226;2024-01-16T12:02:14;4.93;;;4.00;;
359;SDS011;168;48.872;9.226;2024-01-16T12:04:53;6.40;;;4.00;;
359;SDS011;168;48.872;9.226;2024-01-16T12:07:22;6.10;;;3.83;;
359;SDS011;168;48.872;9.226;2024-01-16T12:09:49;5.27;;;3.53;;
359;SDS011;168;48.872;9.226;2024-01-16T12:12:16;8.27;;;4.40;;
359;SDS011;168;48.872;9.226;2024-01-16T12:14:52;6.03;;;3.53;;
359;SDS011;168;48.872;9.226;2024-01-16T12:17:20;4.17;;;3.77;;
359;SDS011;168;48.872;9.226;2024-01-16T12:19:47;3.63;;;3.23;;
359;SDS011;168;48.872;9.226;2024-01-16T12:22:16;4.50;;;3.17;;
359;SDS011;168;48.872;9.226;2024-01-16T12:24:47;4.50;;;3.57;;
359;SDS011;168;48.872;9.226;2024-01-16T12:27:14;6.60;;;4.17;;
359;SDS011;168;48.872;9.226;2024-01-16T12:29:42;4.10;;;3.13;;
359;SDS011;168;48.872;9.226;2024-01-16T12:32:09;9.00;;;4.70;;
359;SDS011;168;48.872;9.226;2024-01-16T12:34:43;4.83;;;3.83;;
359;SDS011;168;48.872;9.226;2024-01-16T12:37:12;6.30;;;4.43;;
359;SDS011;168;48.872;9.226;2024-01-16T12:39:40;6.40;;;4.00;;
359;SDS011;168;48.872;9.226;2024-01-16T12:42:09;7.43;;;4.70;;
359;SDS011;168;48.872;9.226;2024-01-16T12:44:37;4.80;;;4.30;;
359;SDS011;168;48.872;9.226;2024-01-16T12:47:05;5.47;;;4.13;;
359;SDS011;168;48.872;9.226;2024-01-16T12:49:33;6.37;;;3.97;;
359;SDS011;168;48.872;9.226;2024-01-16T12:52:14;7.70;;;4.87;;
359;SDS011;168;48.872;9.226;2024-01-16T12:54:44;9.23;;;3.60;;
359;SDS011;168;48.872;9.226;2024-01-16T12:57:16;5.60;;;4.10;;
359;SDS011;168;48.872;9.226;2024-01-16T12:59:45;7.50;;;4.30;;
359;SDS011;168;48.872;9.226;2024-01-16T13:02:20;7.47;;;4.10;;
359;SDS011;168;48.872;9.226;2024-01-16T13:04:55;5.80;;;3.97;;
359;SDS011;168;48.872;9.226;2024-01-16T13:07:24;7.17;;;4.30;;
359;SDS011;168;48.872;9.226;2024-01-16T13:10:06;7.10;;;4.27;;
359;SDS011;168;48.872;9.226;2024-01-16T13:12:34;6.20;;;5.10;;
359;SDS011;168;48.872;9.226;2024-01-16T13:15:02;6.23;;;4.10;;
359;SDS011;168;48.872;9.226;2024-01-16T13:17:31;4.80;;;4.03;;
359;SDS011;168;48.872;9.226;2024-01-16T13:19:59;7.70;;;4.30;;
359;SDS011;168;48.872;9.226;2024-01-16T13:22:29;8.53;;;3.77;;
359;SDS011;168;48.872;9.226;2024-01-16T13:24:56;4.80;;;3.87;;
359;SDS011;168;48.872;9.226;2024-01-16T13:27:25;11.57;;;4.83;;
359;SDS011;168;48.872;9.226;2024-01-16T13:29:55;7.00;;;3.87;;
359;SDS011;168;48.872;9.226;2024-01-16T13:32:22;6.57;;;4.33;;
359;SDS011;168;48.872;9.226;2024-01-16T13:34:51;5.87;;;4.00;;
359;SDS011;168;48.872;9.226;2024-01-16T13:37:20;6.47;;;3.43;;
359;SDS011;168;48.872;9.226;2024-01-16T13:39:48;4.43;;;3.37;;
359;SDS011;168;48.872;9.226;2024-01-16T13:42:15;4.20;;;2.63;;
359;SDS011;168;48.872;9.226;2024-01-16T13:44:47;4.87;;;2.73;;
359;SDS011;168;48.872;9.226;2024-01-16T13:47:15;3.53;;;2.70;;
359;SDS011;168;48.872;9.226;2024-01-16T13:49:44;4.30;;;2.67;;
359;SDS011;168;48.872;9.226;2024-01-16T13:52:11;4.07;;;2.73;;
359;SDS011;168;48.872;9.226;2024-01-16T13:54:39;5.30;;;2.43;;
359;SDS011;168;48.872;9.226;2024-01-16T13:57:07;4.47;;;2.37;;
359;SDS011;168;48.872;9.226;2024-01-16T13:59:34;3.20;;;2.30;;
359;SDS011;168;48.872;9.226;2024-01-16T14:02:03;6.80;;;4.00;;
359;SDS011;168;48.872;9.226;2024-01-16T14:04:33;3.80;;;2.30;;
359;SDS011;168;48.872;9.226;2024-01-16T14:07:01;6.10;;;2.50;;
359;SDS011;168;48.872;9.226;2024-01-16T14:09:32;7.43;;;3.27;;
359;SDS011;168;48.872;9.226;2024-01-16T14:12:00;4.20;;;2.20;;
359;SDS011;168;48.872;9.226;2024-01-16T14:14:27;4.67;;;2.77;;
359;SDS011;168;48.872;9.226;2024-01-16T14:16:56;6.53;;;2.67;;
359;SDS011;168;48.872;9.226;2024-01-16T14:19:24;4.93;;;2.47;;
359;SDS011;168;48.872;9.226;2024-01-16T14:21:52;3.90;;;2.67;;
359;SDS011;168;48.872;9.226;2024-01-16T14:24:20;4.10;;;2.70;;
359;SDS011;168;48.872;9.226;2024-01-16T14:26:47;3.37;;;2.43;;
359;SDS011;168;48.872;9.226;2024-01-16T14:29:14;4.30;;;2.50;;
359;SDS011;168;48.872;9.226;2024-01-16T14:31:42;4.00;;;2.73;;
359;SDS011;168;48.872;9.226;2024-01-16T14:34:10;3.10;;;2.30;;
359;SDS011;168;48.872;9.226;2024-01-16T14:36:40;3.63;;;2.70;;
359;SDS011;168;48.872;9.226;2024-01-16T14:39:08;3.93;;;2.20;;
359;SDS011;168;48.872;9.226;2024-01-16T14:41:38;3.37;;;2.53;;
359;SDS011;168;48.872;9.226;2024-01-16T14:44:08;5.30;;;3.10;;
359;SDS011;168;48.872;9.226;2024-01-16T14:46:36;5.77;;;2.70;;
359;SDS011;168;48.872;9.226;2024-01-16T14:49:03;4.10;;;2.90;;
359;SDS011;168;48.872;9.226;2024-01-16T14:51:31;5.00;;;2.70;;
359;SDS011;168;48.872;9.226;2024-01-16T14:54:00;3.87;;;2.60;;
359;SDS011;168;48.872;9.226;2024-01-16T14:56:28;5.80;;;3.13;;
359;SDS011;168;48.872;9.226;2024-01-16T14:58:55;5.40;;;3.17;;
359;SDS011;168;48.872;9.226;2024-01-16T15:01:23;5.30;;;2.80;;
359;SDS011;168;48.872;9.226;2024-01-16T15:03:50;5.23;;;3.07;;
359;SDS011;168;48.872;9.226;2024-01-16T15:06:18;7.67;;;3.13;;
359;SDS011;168;48.872;9.226;2024-01-16T15:08:46;5.70;;;3.77;;
359;SDS011;168;48.872;9.226;2024-01-16T15:11:15;5.57;;;3.60;;
359;SDS011;168;48.872;9.226;2024-01-16T15:13:42;4.03;;;3.23;;
359;SDS011;168;48.872;9.226;2024-01-16T15:16:10;5.30;;;3.77;;
359;SDS011;168;48.872;9.226;2024-01-16T15:18:37;6.63;;;3.00;;
359;SDS011;168;48.872;9.226;2024-01-16T15:21:05;4.80;;;3.73;;
359;SDS011;168;48.872;9.226;2024-01-16T15:23:32;3.70;;;3.30;;
359;SDS011;168;48.872;9.226;2024-01-16T15:25:59;5.00;;;3.50;;
359;SDS011;168;48.872;9.226;2024-01-16T15:28:30;5.37;;;3.27;;
359;SDS011;168;48.872;9.226;2024-01-16T15:30:58;8.70;;;3.87;;
359;SDS011;168;48.872;9.226;2024-01-16T15:33:31;4.77;;;2.73;;
359;SDS011;168;48.872;9.226;2024-01-16T15:36:00;6.37;;;3.20;;
359;SDS011;168;48.872;9.226;2024-01-16T15:38:29;6.20;;;3.30;;
359;SDS011;168;48.872;9.226;2024-01-16T15:40:56;4.93;;;3.60;;
359;SDS011;168;48.872;9.226;2024-01-16T15:43:24;4.93;;;3.67;;
359;SDS011;168;48.872;9.226;2024-01-16T15:45:53;5.53;;;2.83;;
359;SDS011;168;48.872;9.226;2024-01-16T15:48:20;4.27;;;3.10;;
359;SDS011;168;48.872;9.226;2024-01-16T15:50:47;4.90;;;3.70;;
359;SDS011;168;48.872;9.226;2024-01-16T15:53:15;5.20;;;3.80;;
359;SDS011;168;48.872;9.226;2024-01-16T15:55:42;6.90;;;3.43;;
359;SDS011;168;48.872;9.226;2024-01-16T15:58:09;7.27;;;4.10;;
359;SDS011;168;48.872;9.226;2024-01-16T16:00:37;3.57;;;3.17;;
359;SDS011;168;48.872;9.226;2024-01-16T16:03:05;5.80;;;4.97;;
359;SDS011;168;48.872;9.226;2024-01-16T16:05:33;6.90;;;5.40;;